createdAt,value
2019-01-06T00:04:55.855Z,8.80
2019-01-06T00:10:09.424Z,9.60
2019-01-06T00:15:32.838Z,10.10
2019-01-06T00:20:56.788Z,9.87
2019-01-06T00:26:04.751Z,9.50
2019-01-06T00:31:27.160Z,9.80
2019-01-06T00:36:32.331Z,9.30
2019-01-06T00:41:49.137Z,10.40
2019-01-06T00:46:56.970Z,8.97
2019-01-06T00:52:18.496Z,10.27
2019-01-06T00:57:29.886Z,9.80
2019-01-06T01:02:38.612Z,11.30
2019-01-06T01:08:00.127Z,9.30
2019-01-06T01:13:05.411Z,10.80
2019-01-06T01:18:13.441Z,10.43
2019-01-06T01:23:33.527Z,10.40
2019-01-06T01:28:38.783Z,10.37
2019-01-06T01:33:46.948Z,9.40
2019-01-06T01:38:52.536Z,9.27
2019-01-06T01:44:17.038Z,9.40
2019-01-06T01:49:38.718Z,9.60
2019-01-06T01:55:02.807Z,9.40
2019-01-06T02:00:26.000Z,8.63
2019-01-06T02:05:49.904Z,8.10
2019-01-06T02:11:00.852Z,7.90
2019-01-06T02:16:18.682Z,6.83
2019-01-06T02:21:26.705Z,6.57
2019-01-06T02:26:31.955Z,7.30
2019-01-06T02:31:37.266Z,7.47
2019-01-06T02:36:42.566Z,8.80
2019-01-06T02:42:05.449Z,8.00
2019-01-06T02:47:13.456Z,8.97
2019-01-06T02:52:27.121Z,9.00
2019-01-06T02:57:41.312Z,9.30
2019-01-06T03:02:55.395Z,8.37
2019-01-06T03:08:03.302Z,9.37
2019-01-06T03:13:08.540Z,9.83
2019-01-06T03:18:25.211Z,9.23
2019-01-06T03:23:46.739Z,9.60
2019-01-06T03:29:12.499Z,8.80
2019-01-06T03:34:32.160Z,8.70
2019-01-06T03:39:43.074Z,9.47
2019-01-06T03:44:53.855Z,9.07
2019-01-06T03:50:16.942Z,9.10
2019-01-06T03:55:27.634Z,7.57
2019-01-06T04:00:41.283Z,9.23
2019-01-06T04:06:05.805Z,8.40
2019-01-06T04:11:16.797Z,8.63
2019-01-06T04:16:37.209Z,7.50
2019-01-06T04:21:42.442Z,8.40
2019-01-06T04:26:50.118Z,7.20
2019-01-06T04:31:55.366Z,6.90
2019-01-06T04:37:12.673Z,7.53
2019-01-06T04:42:32.701Z,7.60
2019-01-06T04:47:54.223Z,7.80
2019-01-06T04:53:18.272Z,7.10
2019-01-06T04:58:39.584Z,7.60
2019-01-06T05:03:53.265Z,8.17
2019-01-06T05:09:01.254Z,8.37
2019-01-06T05:14:06.493Z,7.60
2019-01-06T05:19:27.610Z,8.70
2019-01-06T05:24:44.437Z,8.00
2019-01-06T05:29:52.457Z,8.10
2019-01-06T05:35:15.351Z,9.17
2019-01-06T05:40:23.445Z,8.63
2019-01-06T05:45:28.711Z,8.20
2019-01-06T05:50:36.622Z,7.80
2019-01-06T05:55:41.870Z,7.77
2019-01-06T06:00:55.989Z,8.97
2019-01-06T06:06:09.631Z,9.50
2019-01-06T06:11:32.448Z,10.00
2019-01-06T06:16:57.070Z,10.17
2019-01-06T06:22:11.130Z,9.07
2019-01-06T06:27:19.032Z,9.30
2019-01-06T06:32:40.270Z,8.80
2019-01-06T06:38:00.350Z,8.70
2019-01-06T06:43:14.321Z,8.90
2019-01-06T06:48:31.376Z,7.70
2019-01-06T06:53:50.889Z,8.50
2019-01-06T06:58:56.146Z,8.63
2019-01-06T07:04:17.498Z,7.90
2019-01-06T07:09:25.704Z,9.40
2019-01-06T07:14:42.575Z,9.47
2019-01-06T07:20:05.990Z,8.63
2019-01-06T07:25:13.813Z,9.57
2019-01-06T07:30:21.854Z,10.10
2019-01-06T07:35:32.784Z,9.50
2019-01-06T07:40:40.760Z,10.70
2019-01-06T07:45:46.199Z,9.90
2019-01-06T07:50:58.936Z,10.60
2019-01-06T07:56:04.968Z,10.00
2019-01-06T08:01:12.960Z,9.37
2019-01-06T08:06:34.262Z,10.10
2019-01-06T08:11:54.732Z,10.27
2019-01-06T08:16:59.970Z,9.93
2019-01-06T08:22:13.694Z,9.63
2019-01-06T08:27:27.618Z,10.57
2019-01-06T08:32:35.908Z,7.87
2019-01-06T08:37:50.286Z,10.00
2019-01-06T08:42:55.537Z,8.60
2019-01-06T08:48:03.766Z,9.80
2019-01-06T08:53:14.701Z,9.40
2019-01-06T08:58:19.941Z,9.63
2019-01-06T09:03:41.250Z,9.03
2019-01-06T09:08:46.508Z,9.23
2019-01-06T09:13:57.776Z,8.70
2019-01-06T09:19:03.234Z,9.37
2019-01-06T09:24:11.210Z,9.37
2019-01-06T09:29:32.686Z,7.90
2019-01-06T09:34:40.722Z,8.87
2019-01-06T09:40:03.531Z,8.60
2019-01-06T09:45:24.802Z,9.40
2019-01-06T09:50:30.053Z,9.63
2019-01-06T09:55:45.686Z,9.10
2019-01-06T10:01:05.649Z,9.03
2019-01-06T10:06:25.748Z,9.30
2019-01-06T10:11:33.989Z,9.40
2019-01-06T10:16:42.483Z,7.83
2019-01-06T10:22:03.488Z,7.37
2019-01-06T10:27:23.450Z,7.47
2019-01-06T10:32:28.709Z,7.40
2019-01-06T10:37:37.029Z,7.97
2019-01-06T10:42:42.375Z,7.50
2019-01-06T10:48:03.647Z,6.90
2019-01-06T10:53:14.576Z,6.40
2019-01-06T10:58:31.623Z,6.00
2019-01-06T11:03:54.478Z,5.97
2019-01-06T11:09:17.742Z,5.43
2019-01-06T11:14:31.526Z,5.10
2019-01-06T11:19:52.519Z,5.43
2019-01-06T11:25:14.830Z,4.47
2019-01-06T11:30:28.596Z,5.83
2019-01-06T11:35:45.412Z,5.80
2019-01-06T11:41:08.120Z,5.90
2019-01-06T11:46:15.464Z,6.40
2019-01-06T11:51:35.254Z,6.00
2019-01-06T11:56:49.309Z,5.23
2019-01-06T12:01:57.446Z,6.50
2019-01-06T12:07:02.750Z,4.80
2019-01-06T12:12:23.931Z,5.50
2019-01-06T12:17:34.932Z,5.57
2019-01-06T12:22:40.531Z,5.90
2019-01-06T12:28:03.890Z,6.20
2019-01-06T12:33:09.217Z,6.10
2019-01-06T12:38:30.529Z,5.60
2019-01-06T12:43:50.370Z,5.77
2019-01-06T12:49:12.175Z,5.33
2019-01-06T12:54:25.974Z,4.80
2019-01-06T12:59:50.382Z,5.30
2019-01-06T13:05:04.142Z,5.53
2019-01-06T13:10:23.161Z,5.10
2019-01-06T13:15:44.607Z,5.27
2019-01-06T13:20:58.323Z,4.83
2019-01-06T13:26:19.619Z,5.17
2019-01-06T13:31:42.414Z,5.10
2019-01-06T13:37:05.911Z,5.43
2019-01-06T13:42:13.914Z,5.17
2019-01-06T13:47:39.797Z,4.80
2019-01-06T13:52:46.773Z,4.90
2019-01-06T13:57:52.017Z,5.80
2019-01-06T14:03:06.100Z,6.00
2019-01-06T14:08:14.264Z,5.83
2019-01-06T14:13:36.921Z,5.90
2019-01-06T14:19:16.509Z,6.13
2019-01-06T14:24:27.433Z,6.70
2019-01-06T14:29:32.988Z,7.67
2019-01-06T14:34:38.322Z,7.80
2019-01-06T14:40:01.366Z,7.40
2019-01-06T14:45:07.078Z,7.23
2019-01-06T14:50:30.178Z,7.10
2019-01-06T14:55:35.463Z,7.43
2019-01-06T15:00:46.422Z,6.37
2019-01-06T15:06:16.074Z,6.50
2019-01-06T15:11:36.107Z,7.10
2019-01-06T15:17:02.180Z,6.00
2019-01-06T15:22:16.051Z,7.10
2019-01-06T15:27:23.823Z,5.73
2019-01-06T15:32:31.511Z,5.40
2019-01-06T15:37:44.633Z,6.00
2019-01-06T15:43:08.374Z,6.70
2019-01-06T15:48:32.459Z,7.10
2019-01-06T15:53:40.243Z,6.40
2019-01-06T15:58:45.532Z,6.40
2019-01-06T16:03:59.830Z,6.93
2019-01-06T16:09:14.574Z,7.50
2019-01-06T16:14:36.039Z,8.10
2019-01-06T16:19:59.401Z,7.43
2019-01-06T16:25:22.502Z,9.13
2019-01-06T16:30:46.183Z,8.80
2019-01-06T16:35:54.201Z,8.20
2019-01-06T16:41:19.030Z,10.20
2019-01-06T16:46:26.870Z,8.37
2019-01-06T16:51:50.806Z,7.50
2019-01-06T16:56:58.831Z,8.90
2019-01-06T17:02:18.667Z,8.00
2019-01-06T17:07:33.615Z,7.00
2019-01-06T17:12:55.546Z,7.27
2019-01-06T17:18:19.542Z,6.20
2019-01-06T17:23:40.152Z,6.70
2019-01-06T17:29:01.765Z,7.20
2019-01-06T17:34:12.682Z,6.80
2019-01-06T17:39:17.910Z,7.37
2019-01-06T17:44:39.046Z,7.97
2019-01-06T17:50:04.861Z,11.23
2019-01-06T17:55:12.904Z,13.10
2019-01-06T18:00:34.262Z,7.93
2019-01-06T18:05:58.674Z,7.70
2019-01-06T18:11:03.932Z,8.23
2019-01-06T18:16:25.233Z,8.60
2019-01-06T18:21:33.054Z,8.23
2019-01-06T18:26:38.347Z,9.50
2019-01-06T18:31:46.307Z,8.70
2019-01-06T18:36:51.557Z,8.93
2019-01-06T18:42:17.246Z,9.03
2019-01-06T18:47:28.574Z,9.80
2019-01-06T18:52:36.442Z,8.33
2019-01-06T18:57:44.133Z,8.00
2019-01-06T19:03:13.236Z,8.03
2019-01-06T19:08:18.595Z,8.00
2019-01-06T19:13:38.493Z,8.83
2019-01-06T19:18:49.686Z,7.30
2019-01-06T19:24:03.745Z,6.73
2019-01-06T19:29:11.668Z,7.33
2019-01-06T19:34:28.866Z,7.13
2019-01-06T19:39:45.998Z,8.20
2019-01-06T19:45:07.342Z,8.63
2019-01-06T19:50:19.405Z,8.40
2019-01-06T19:55:34.186Z,7.60
2019-01-06T20:00:58.414Z,8.80
2019-01-06T20:06:19.390Z,7.00
2019-01-06T20:11:27.179Z,8.70
2019-01-06T20:16:35.137Z,9.33
2019-01-06T20:21:54.978Z,7.37
2019-01-06T20:27:11.592Z,7.90
2019-01-06T20:32:28.570Z,7.27
2019-01-06T20:37:51.445Z,7.60
2019-01-06T20:43:08.526Z,7.00
2019-01-06T20:48:16.790Z,6.63
2019-01-06T20:53:24.753Z,6.57
2019-01-06T20:58:42.107Z,7.57
2019-01-06T21:04:04.815Z,8.30
2019-01-06T21:09:15.466Z,9.20
2019-01-06T21:14:32.273Z,9.90
2019-01-06T21:19:43.239Z,9.07
2019-01-06T21:25:00.343Z,8.53
2019-01-06T21:30:14.918Z,8.20
2019-01-06T21:35:20.154Z,9.53
2019-01-06T21:40:37.170Z,9.33
2019-01-06T21:45:57.282Z,10.10
2019-01-06T21:51:02.512Z,9.20
2019-01-06T21:56:07.742Z,9.33
2019-01-06T22:01:28.949Z,9.43
2019-01-06T22:06:52.501Z,8.37
2019-01-06T22:11:57.704Z,11.67
2019-01-06T22:17:19.248Z,11.83
2019-01-06T22:22:40.730Z,11.60
2019-01-06T22:28:01.889Z,12.33
2019-01-06T22:33:19.237Z,11.93
2019-01-06T22:38:33.416Z,13.80
2019-01-06T22:43:56.514Z,12.13
2019-01-06T22:49:07.383Z,13.00
2019-01-06T22:54:31.863Z,14.00
2019-01-06T22:59:42.206Z,12.33
2019-01-06T23:05:03.674Z,13.37
2019-01-06T23:10:11.597Z,11.57
2019-01-06T23:15:34.157Z,12.10
2019-01-06T23:20:39.322Z,11.97
2019-01-06T23:25:59.446Z,10.80
2019-01-06T23:31:07.118Z,10.60
2019-01-06T23:36:18.431Z,11.07
2019-01-06T23:41:42.673Z,11.60
2019-01-06T23:46:56.803Z,12.33
2019-01-06T23:52:18.487Z,11.47
2019-01-06T23:57:32.681Z,11.33
